Time;durP1;ratioP1;P1;durP2;ratioP2;P2;SDS_P1;SDS_P2;PMS_P1;PMS_P2;Temp;Humidity;BMP_temperature;BMP_pressure;BME280_temperature;BME280_humidity;BME280_pressure;Samples;Min_cycle;Max_cycle;Signal;HPM_P1;HPM_P2
2021/11/30 00:01:05;;;;;;;0.68;0.68;;;3.50;99.90;;;;;;4437234;32;20112;-72
2021/11/30 00:03:33;;;;;;;0.55;0.55;;;3.50;99.90;;;;;;4435194;32;20558;-72
2021/11/30 00:05:59;;;;;;;1.73;1.62;;;3.50;99.90;;;;;;4435267;32;20130;-72
2021/11/30 00:08:29;;;;;;;0.45;0.45;;;3.50;99.90;;;;;;4436655;32;20065;-72
2021/11/30 00:10:57;;;;;;;0.32;0.32;;;3.40;99.90;;;;;;4433588;32;20089;-72
2021/11/30 00:13:23;;;;;;;9.93;0.93;;;3.40;99.90;;;;;;4434817;32;20119;-73
2021/11/30 00:15:51;;;;;;;0.52;0.52;;;3.50;99.90;;;;;;4434605;32;20081;-72
2021/11/30 00:18:18;;;;;;;0.50;0.50;;;3.40;99.90;;;;;;4435451;32;21383;-72
2021/11/30 00:20:44;;;;;;;0.55;0.55;;;3.40;99.90;;;;;;4434546;32;20065;-72
2021/11/30 00:23:11;;;;;;;0.40;0.40;;;3.40;99.90;;;;;;4431624;32;20061;-73
2021/11/30 00:25:38;;;;;;;0.50;0.50;;;3.40;99.90;;;;;;4434835;32;20095;-72
2021/11/30 00:28:05;;;;;;;0.68;0.68;;;3.30;99.90;;;;;;4436140;32;20073;-72
2021/11/30 00:30:32;;;;;;;0.70;0.70;;;3.30;99.90;;;;;;4435156;32;20085;-72
2021/11/30 00:32:58;;;;;;;1.12;0.82;;;3.30;99.90;;;;;;4433276;32;20398;-72
2021/11/30 00:35:25;;;;;;;0.98;0.57;;;3.30;99.90;;;;;;4433924;32;20061;-72
2021/11/30 00:37:51;;;;;;;0.32;0.32;;;3.30;99.90;;;;;;4435242;32;20592;-73
2021/11/30 00:40:17;;;;;;;0.47;0.47;;;3.40;99.90;;;;;;4437881;32;20065;-72
2021/11/30 00:42:43;;;;;;;0.40;0.40;;;3.40;99.90;;;;;;4434242;32;20155;-72
2021/11/30 00:45:14;;;;;;;0.50;0.50;;;3.40;99.90;;;;;;4432955;32;20084;-72
2021/11/30 00:47:46;;;;;;;0.60;0.60;;;3.40;99.90;;;;;;4436397;32;20065;-72
2021/11/30 00:50:13;;;;;;;0.40;0.40;;;3.40;99.90;;;;;;4433048;32;20106;-72
2021/11/30 00:52:39;;;;;;;0.50;0.50;;;3.40;99.90;;;;;;4432877;32;20558;-72
2021/11/30 00:55:05;;;;;;;0.40;0.40;;;3.40;99.90;;;;;;4432154;32;20085;-72
2021/11/30 00:57:31;;;;;;;0.50;0.50;;;3.30;99.90;;;;;;4435083;32;20138;-72
2021/11/30 00:59:57;;;;;;;0.50;0.50;;;3.40;99.90;;;;;;4433780;32;20097;-72
2021/11/30 01:02:23;;;;;;;0.40;0.40;;;3.40;99.90;;;;;;4435558;32;20069;-72
2021/11/30 01:04:48;;;;;;;0.60;0.60;;;3.30;99.90;;;;;;4433617;32;20069;-72
2021/11/30 01:07:15;;;;;;;0.75;0.55;;;3.30;99.90;;;;;;4435645;32;20093;-73
2021/11/30 01:09:42;;;;;;;0.30;0.30;;;3.30;99.90;;;;;;4435135;32;20073;-72
2021/11/30 01:12:08;;;;;;;1.40;0.90;;;3.40;99.90;;;;;;4432378;32;20057;-71
2021/11/30 01:14:34;;;;;;;0.50;0.50;;;3.40;99.90;;;;;;4435845;32;20061;-71
2021/11/30 01:17:00;;;;;;;5.55;0.90;;;3.40;99.90;;;;;;4436616;32;20104;-72
2021/11/30 01:19:25;;;;;;;0.55;0.55;;;3.30;99.90;;;;;;4434665;32;20070;-72
2021/11/30 01:21:51;;;;;;;0.40;0.40;;;3.40;99.90;;;;;;4437061;32;20097;-73
2021/11/30 01:24:17;;;;;;;0.60;0.60;;;3.40;99.90;;;;;;4435373;32;20073;-72
2021/11/30 01:26:43;;;;;;;0.82;0.82;;;3.30;99.90;;;;;;4439232;32;20098;-72
2021/11/30 01:29:09;;;;;;;0.60;0.60;;;3.30;99.90;;;;;;4435011;32;20538;-72
2021/11/30 01:31:35;;;;;;;0.40;0.40;;;3.30;99.90;;;;;;4436014;32;20110;-72
2021/11/30 01:34:01;;;;;;;0.60;0.60;;;3.30;99.90;;;;;;4434507;32;20073;-71
2021/11/30 01:36:28;;;;;;;0.50;0.50;;;3.40;99.90;;;;;;4436210;32;20506;-72
2021/11/30 01:38:54;;;;;;;0.50;0.50;;;3.40;99.90;;;;;;4433673;32;20065;-71
2021/11/30 01:41:20;;;;;;;0.75;0.75;;;3.30;99.90;;;;;;4433719;32;20073;-72
2021/11/30 01:43:47;;;;;;;1.85;1.58;;;3.40;99.90;;;;;;4437340;32;20061;-72
2021/11/30 01:49:24;;;;;;;0.40;0.40;;;3.30;99.90;;;;;;4435653;32;20105;-72
2021/11/30 01:51:32;;;;;;;0.40;0.40;;;3.40;99.90;;;;;;4432105;32;20077;-72
2021/11/30 01:53:58;;;;;;;0.50;0.50;;;3.30;99.90;;;;;;4436352;32;20056;-71
2021/11/30 01:56:25;;;;;;;0.37;0.37;;;3.30;99.90;;;;;;4433925;32;20077;-72
2021/11/30 01:58:52;;;;;;;0.50;0.50;;;3.30;99.90;;;;;;4436739;32;20090;-72
2021/11/30 02:01:18;;;;;;;2.85;1.15;;;3.20;99.90;;;;;;4436767;32;20065;-72
2021/11/30 02:03:45;;;;;;;0.80;0.80;;;3.30;99.90;;;;;;4435876;32;20061;-71
2021/11/30 02:06:11;;;;;;;0.40;0.40;;;3.30;99.90;;;;;;4435556;32;20092;-72
2021/11/30 02:08:36;;;;;;;0.45;0.45;;;3.20;99.90;;;;;;4437083;32;20119;-73
2021/11/30 02:11:03;;;;;;;0.30;0.30;;;3.30;99.90;;;;;;4434357;32;20539;-73
2021/11/30 02:13:29;;;;;;;0.60;0.60;;;3.20;99.90;;;;;;4433595;32;20068;-72
2021/11/30 02:15:56;;;;;;;0.40;0.40;;;3.30;99.90;;;;;;4439484;32;20509;-72
2021/11/30 02:18:23;;;;;;;0.65;0.65;;;3.20;99.90;;;;;;4437503;32;20081;-72
2021/11/30 02:20:56;;;;;;;0.57;0.57;;;3.30;99.90;;;;;;4439089;32;20102;-72
2021/11/30 02:23:32;;;;;;;0.40;0.40;;;3.20;99.90;;;;;;4438260;32;20081;-73
2021/11/30 02:25:59;;;;;;;0.40;0.40;;;3.30;99.90;;;;;;4437776;32;20562;-72
2021/11/30 02:28:26;;;;;;;0.65;0.45;;;3.20;99.90;;;;;;4439959;32;20077;-72
2021/11/30 02:30:51;;;;;;;0.40;0.40;;;3.20;99.90;;;;;;4436938;32;20149;-72
2021/11/30 02:33:17;;;;;;;0.45;0.45;;;3.20;99.90;;;;;;4438711;32;20085;-72
2021/11/30 02:35:43;;;;;;;0.60;0.60;;;3.20;99.90;;;;;;4437229;32;20309;-71
2021/11/30 02:38:09;;;;;;;5.07;1.17;;;3.20;99.90;;;;;;4438951;32;20061;-71
2021/11/30 02:40:36;;;;;;;0.50;0.50;;;3.20;99.90;;;;;;4439096;32;20081;-71
2021/11/30 02:43:03;;;;;;;0.77;0.77;;;3.20;99.90;;;;;;4437943;32;20089;-71
2021/11/30 02:45:29;;;;;;;0.50;0.50;;;3.30;99.90;;;;;;4438230;32;20089;-72
2021/11/30 02:47:55;;;;;;;0.50;0.50;;;3.20;99.90;;;;;;4439323;32;20070;-71
2021/11/30 02:50:21;;;;;;;1.90;0.93;;;3.20;99.90;;;;;;4437187;32;20105;-72
2021/11/30 02:52:47;;;;;;;0.35;0.35;;;3.20;99.90;;;;;;4436933;32;20183;-71
2021/11/30 02:55:12;;;;;;;0.40;0.40;;;3.30;99.90;;;;;;4439876;32;20073;-73
2021/11/30 02:57:44;;;;;;;0.70;0.70;;;3.30;99.90;;;;;;4437414;32;20062;-72
2021/11/30 03:00:10;;;;;;;1.65;0.65;;;3.30;99.90;;;;;;4434719;32;20081;-71
2021/11/30 03:02:37;;;;;;;0.50;0.50;;;3.20;99.90;;;;;;4438392;32;20076;-73
2021/11/30 03:05:04;;;;;;;0.47;0.47;;;3.20;99.90;;;;;;4439367;32;20068;-73
2021/11/30 03:07:37;;;;;;;2.17;0.82;;;3.20;99.90;;;;;;4436700;32;20078;-72
2021/11/30 03:10:07;;;;;;;0.98;0.55;;;3.20;99.90;;;;;;4438131;32;20074;-71
2021/11/30 03:12:34;;;;;;;0.50;0.50;;;3.20;99.90;;;;;;4436232;32;20061;-72
2021/11/30 03:15:10;;;;;;;0.60;0.60;;;3.20;99.90;;;;;;4437382;32;20071;-73
2021/11/30 03:17:36;;;;;;;2.40;1.02;;;3.20;99.90;;;;;;4434842;32;20081;-72
2021/11/30 03:20:02;;;;;;;1.17;1.08;;;3.30;99.90;;;;;;4435645;32;20065;-71
2021/11/30 03:22:27;;;;;;;1.60;1.12;;;3.30;99.90;;;;;;4436658;32;20501;-72
2021/11/30 03:24:53;;;;;;;0.68;0.68;;;3.30;99.90;;;;;;4432817;32;20127;-71
2021/11/30 03:27:19;;;;;;;0.40;0.40;;;3.30;99.90;;;;;;4438992;32;20077;-71
2021/11/30 03:29:45;;;;;;;0.93;0.90;;;3.30;99.90;;;;;;4439177;32;20074;-72
2021/11/30 03:33:58;;;;;;;1.05;0.65;;;3.30;99.90;;;;;;4434666;32;20095;-71
2021/11/30 03:34:56;;;;;;;0.90;0.90;;;3.20;99.90;;;;;;4434342;32;20085;-71
2021/11/30 03:37:21;;;;;;;0.40;0.40;;;3.20;99.90;;;;;;4436709;32;20060;-71
2021/11/30 03:39:47;;;;;;;0.55;0.55;;;3.30;99.90;;;;;;4436944;32;20705;-72
2021/11/30 03:42:14;;;;;;;0.45;0.45;;;3.20;99.90;;;;;;4438744;32;20094;-71
2021/11/30 03:44:39;;;;;;;0.70;0.70;;;3.20;99.90;;;;;;4435907;32;20142;-71
2021/11/30 03:47:05;;;;;;;1.65;1.25;;;3.20;99.90;;;;;;4435399;32;20574;-72
2021/11/30 03:49:30;;;;;;;0.70;0.70;;;3.20;99.90;;;;;;4437555;32;20150;-71
2021/11/30 03:51:56;;;;;;;0.88;0.88;;;3.20;99.90;;;;;;4437959;32;20165;-71
2021/11/30 03:54:22;;;;;;;0.60;0.60;;;3.30;99.90;;;;;;4437806;32;20653;-71
2021/11/30 03:56:49;;;;;;;0.80;0.80;;;3.20;99.90;;;;;;4438065;32;20073;-72
2021/11/30 03:59:15;;;;;;;0.65;0.65;;;3.10;99.90;;;;;;4438133;32;20190;-71
2021/11/30 04:01:41;;;;;;;0.60;0.60;;;3.20;99.90;;;;;;4435704;32;20642;-72
2021/11/30 04:04:11;;;;;;;0.40;0.40;;;3.20;99.90;;;;;;4436922;32;20068;-71
2021/11/30 04:06:37;;;;;;;0.70;0.70;;;3.10;99.90;;;;;;4434997;32;20089;-72
2021/11/30 04:09:02;;;;;;;0.37;0.37;;;3.20;99.90;;;;;;4437606;32;20086;-72
2021/11/30 04:11:29;;;;;;;0.50;0.50;;;3.20;99.90;;;;;;4435279;32;20089;-72
2021/11/30 04:13:54;;;;;;;0.65;0.65;;;3.10;99.90;;;;;;4439261;32;20082;-71
2021/11/30 04:16:20;;;;;;;0.70;0.70;;;3.20;99.90;;;;;;4435741;32;20073;-72
2021/11/30 04:18:45;;;;;;;0.43;0.43;;;3.20;99.90;;;;;;4437304;32;20547;-72
2021/11/30 04:21:11;;;;;;;0.70;0.70;;;3.20;99.90;;;;;;4436800;32;20062;-72
2021/11/30 04:23:36;;;;;;;1.87;1.17;;;3.30;99.90;;;;;;4438221;32;20098;-72
2021/11/30 04:26:02;;;;;;;0.57;0.57;;;3.30;99.90;;;;;;4433661;32;20161;-71
2021/11/30 04:28:28;;;;;;;0.68;0.68;;;3.30;99.90;;;;;;4438300;32;20120;-70
2021/11/30 04:30:54;;;;;;;1.80;1.20;;;3.20;99.90;;;;;;4436940;32;20140;-72
2021/11/30 04:33:19;;;;;;;0.50;0.50;;;3.10;99.90;;;;;;4434262;32;104008;-71
2021/11/30 04:35:45;;;;;;;5.93;1.27;;;3.00;99.90;;;;;;4435899;32;20065;-71
2021/11/30 04:38:10;;;;;;;1.30;0.73;;;3.00;99.90;;;;;;4435525;32;20220;-72
2021/11/30 04:40:36;;;;;;;4.15;0.93;;;3.00;99.90;;;;;;4436187;32;20065;-70
2021/11/30 04:43:02;;;;;;;0.50;0.50;;;3.10;99.90;;;;;;4437053;32;20101;-72
2021/11/30 04:45:37;;;;;;;0.40;0.40;;;3.00;99.90;;;;;;4435970;32;20073;-72
2021/11/30 04:48:03;;;;;;;0.40;0.40;;;3.00;99.90;;;;;;4437517;32;20085;-72
2021/11/30 04:50:32;;;;;;;1.00;0.57;;;3.00;99.90;;;;;;4438730;32;20069;-71
2021/11/30 04:52:59;;;;;;;0.40;0.40;;;2.90;99.90;;;;;;4437671;32;20065;-71
2021/11/30 04:55:28;;;;;;;11.12;2.28;;;2.90;99.90;;;;;;4434497;32;20712;-72
2021/11/30 04:57:58;;;;;;;0.40;0.40;;;2.80;99.90;;;;;;4436445;32;20219;-72
2021/11/30 05:00:26;;;;;;;0.47;0.47;;;2.80;99.90;;;;;;4435351;32;20093;-71
2021/11/30 05:02:52;;;;;;;0.68;0.68;;;2.70;99.90;;;;;;4436794;32;20070;-72
2021/11/30 05:05:18;;;;;;;1.12;0.95;;;2.60;99.90;;;;;;4437474;32;20077;-71
2021/11/30 05:07:46;;;;;;;0.30;0.30;;;2.60;99.90;;;;;;4434094;32;20078;-71
2021/11/30 05:10:13;;;;;;;0.60;0.60;;;2.60;99.90;;;;;;4435470;32;20124;-71
2021/11/30 05:12:40;;;;;;;0.40;0.40;;;2.60;99.90;;;;;;4438554;32;20069;-72
2021/11/30 05:15:06;;;;;;;0.73;0.73;;;2.60;99.90;;;;;;4438135;32;20124;-71
2021/11/30 05:17:33;;;;;;;0.68;0.68;;;2.60;99.90;;;;;;4435587;32;20083;-71
2021/11/30 05:19:59;;;;;;;0.45;0.45;;;2.60;99.90;;;;;;4437147;32;20537;-72
2021/11/30 05:22:26;;;;;;;0.40;0.40;;;2.60;99.90;;;;;;4428127;32;21222;-72
2021/11/30 05:24:51;;;;;;;0.47;0.47;;;2.50;99.90;;;;;;4432543;32;20449;-72
2021/11/30 05:27:17;;;;;;;0.68;0.68;;;2.60;99.90;;;;;;4434573;32;20161;-71
2021/11/30 05:29:42;;;;;;;0.47;0.47;;;2.50;99.90;;;;;;4435651;32;20084;-72
2021/11/30 05:32:08;;;;;;;0.30;0.30;;;2.60;99.90;;;;;;4434887;32;20082;-71
2021/11/30 05:34:33;;;;;;;0.43;0.43;;;2.50;99.90;;;;;;4435910;32;20069;-72
2021/11/30 05:36:59;;;;;;;0.47;0.47;;;2.50;99.90;;;;;;4437794;32;20077;-71
2021/11/30 05:39:24;;;;;;;0.50;0.50;;;2.50;99.90;;;;;;4434309;32;20644;-72
2021/11/30 05:41:50;;;;;;;0.30;0.30;;;2.60;99.90;;;;;;4435781;32;20108;-72
2021/11/30 05:44:16;;;;;;;0.85;0.85;;;2.50;99.90;;;;;;4437741;32;20814;-72
2021/11/30 05:46:41;;;;;;;0.62;0.62;;;2.50;99.90;;;;;;4435080;32;20082;-70
2021/11/30 05:49:07;;;;;;;0.35;0.35;;;2.50;99.90;;;;;;4436478;32;20070;-71
2021/11/30 05:51:34;;;;;;;1.12;0.68;;;2.50;99.90;;;;;;4436516;32;20132;-71
2021/11/30 05:54:00;;;;;;;0.40;0.40;;;2.60;99.90;;;;;;4434839;32;20076;-71
2021/11/30 05:56:27;;;;;;;0.70;0.70;;;2.60;99.90;;;;;;4436915;32;20089;-71
2021/11/30 05:58:53;;;;;;;0.50;0.50;;;2.70;99.90;;;;;;4436034;32;20168;-72
2021/11/30 06:01:23;;;;;;;0.30;0.30;;;2.60;99.90;;;;;;4430307;32;20077;-72
2021/11/30 06:06:17;;;;;;;0.40;0.40;;;2.50;99.90;;;;;;4432827;32;20489;-72
2021/11/30 06:08:43;;;;;;;0.40;0.40;;;2.60;99.90;;;;;;4431830;32;20077;-71
2021/11/30 06:11:09;;;;;;;0.30;0.30;;;2.60;99.90;;;;;;4431119;32;20077;-71
2021/11/30 06:13:35;;;;;;;0.43;0.43;;;2.50;99.90;;;;;;4432382;32;20145;-71
2021/11/30 06:16:00;;;;;;;0.40;0.40;;;2.70;99.90;;;;;;4432237;32;20073;-71
2021/11/30 06:18:26;;;;;;;0.40;0.40;;;2.70;99.90;;;;;;4421865;32;20137;-72
2021/11/30 06:20:53;;;;;;;0.60;0.60;;;2.60;99.90;;;;;;4432442;32;20073;-71
2021/11/30 06:23:18;;;;;;;1.55;0.62;;;2.60;99.90;;;;;;4430457;32;20076;-71
2021/11/30 06:25:44;;;;;;;2.37;1.27;;;2.60;99.90;;;;;;4431935;32;20082;-72
2021/11/30 06:28:09;;;;;;;0.30;0.30;;;2.60;99.90;;;;;;4422373;32;20069;-72
2021/11/30 06:30:36;;;;;;;0.50;0.50;;;2.50;99.90;;;;;;4417897;32;20081;-70
2021/11/30 06:33:03;;;;;;;12.57;1.48;;;2.50;99.90;;;;;;4417931;32;20090;-72
2021/11/30 06:35:29;;;;;;;3.85;0.95;;;2.50;99.90;;;;;;4429483;32;20082;-73
2021/11/30 06:37:55;;;;;;;0.60;0.60;;;2.50;99.90;;;;;;4427226;32;20546;-70
2021/11/30 06:40:21;;;;;;;0.40;0.40;;;2.50;99.90;;;;;;4428986;32;20065;-71
2021/11/30 06:42:47;;;;;;;3.25;0.77;;;2.60;99.90;;;;;;4429091;32;20771;-73
2021/11/30 06:45:13;;;;;;;0.40;0.40;;;2.50;99.90;;;;;;4423151;32;20125;-72
2021/11/30 06:47:42;;;;;;;1.02;0.93;;;2.50;99.90;;;;;;4427405;32;20065;-72
2021/11/30 06:50:08;;;;;;;0.40;0.40;;;2.60;99.90;;;;;;4424227;32;20086;-71
2021/11/30 06:52:34;;;;;;;0.40;0.40;;;2.60;99.90;;;;;;4425972;32;20073;-72
2021/11/30 06:55:00;;;;;;;0.50;0.50;;;2.60;99.90;;;;;;4422158;32;20078;-71
2021/11/30 06:57:25;;;;;;;0.47;0.47;;;2.50;99.90;;;;;;4418395;32;20097;-71
2021/11/30 06:59:51;;;;;;;0.32;0.32;;;2.50;99.90;;;;;;4407689;32;20324;-72
2021/11/30 07:02:17;;;;;;;1.55;0.95;;;2.50;99.90;;;;;;4415272;32;20081;-72
2021/11/30 07:04:45;;;;;;;0.40;0.40;;;2.50;99.90;;;;;;4412193;32;21811;-71
2021/11/30 07:07:34;;;;;;;0.70;0.43;;;2.60;99.90;;;;;;4417613;32;20679;-72
2021/11/30 07:11:04;;;;;;;0.50;0.50;;;2.60;99.90;;;;;;4419439;32;20479;-72
2021/11/30 07:15:12;;;;;;;0.52;0.52;;;2.70;99.90;;;;;;4414003;32;20553;-72
2021/11/30 07:17:38;;;;;;;0.62;0.62;;;2.60;99.90;;;;;;4421758;32;20105;-72
2021/11/30 07:20:05;;;;;;;0.40;0.40;;;2.50;99.90;;;;;;4423608;32;20523;-71
2021/11/30 07:22:31;;;;;;;0.77;0.70;;;2.60;99.90;;;;;;4420923;32;20081;-71
2021/11/30 07:24:58;;;;;;;0.40;0.40;;;2.60;99.90;;;;;;4425453;32;20252;-72
2021/11/30 07:27:24;;;;;;;0.60;0.60;;;2.60;99.90;;;;;;4421708;32;20058;-72
2021/11/30 07:29:50;;;;;;;0.35;0.35;;;2.50;99.90;;;;;;4415150;32;20190;-71
2021/11/30 07:32:17;;;;;;;0.40;0.40;;;2.60;99.90;;;;;;4416220;32;20104;-72
2021/11/30 07:34:42;;;;;;;0.75;0.75;;;2.70;99.90;;;;;;4417187;32;20129;-72
2021/11/30 07:37:08;;;;;;;3.00;0.95;;;2.80;99.90;;;;;;4420494;32;20254;-71
2021/11/30 07:39:34;;;;;;;0.40;0.40;;;2.80;99.90;;;;;;4419092;32;20093;-72
2021/11/30 07:42:01;;;;;;;0.47;0.47;;;2.70;99.90;;;;;;4414830;32;20161;-71
2021/11/30 07:44:28;;;;;;;1.45;0.73;;;2.70;99.90;;;;;;4408482;32;20089;-69
2021/11/30 07:46:54;;;;;;;0.40;0.40;;;2.70;99.90;;;;;;4409678;32;20113;-71
2021/11/30 07:49:20;;;;;;;0.35;0.35;;;2.70;99.90;;;;;;4415802;32;20101;-70
2021/11/30 07:51:46;;;;;;;0.50;0.50;;;2.70;99.90;;;;;;4416571;32;20084;-70
2021/11/30 07:54:11;;;;;;;1.00;0.85;;;2.70;99.90;;;;;;4419884;32;20197;-70
2021/11/30 07:56:37;;;;;;;0.60;0.60;;;2.70;99.90;;;;;;4418719;32;20210;-70
2021/11/30 07:59:03;;;;;;;0.50;0.50;;;2.70;99.90;;;;;;4419128;32;20081;-70
2021/11/30 08:01:28;;;;;;;0.70;0.70;;;2.60;99.90;;;;;;4418320;32;20080;-73
2021/11/30 08:03:54;;;;;;;0.40;0.40;;;2.60;99.90;;;;;;4417724;32;20093;-70
2021/11/30 08:06:19;;;;;;;0.57;0.57;;;2.70;99.90;;;;;;4419032;32;20377;-70
2021/11/30 08:08:48;;;;;;;0.57;0.57;;;2.60;99.90;;;;;;4416838;32;20590;-70
2021/11/30 08:11:13;;;;;;;0.40;0.40;;;2.70;99.90;;;;;;4419060;32;20547;-70
2021/11/30 08:13:40;;;;;;;0.40;0.40;;;2.70;99.90;;;;;;4411053;32;20126;-70
2021/11/30 08:16:06;;;;;;;0.57;0.57;;;2.70;99.90;;;;;;4412245;32;20307;-71
2021/11/30 08:18:31;;;;;;;0.40;0.40;;;2.70;99.90;;;;;;4409994;32;20097;-71
2021/11/30 08:20:57;;;;;;;0.47;0.47;;;2.70;99.90;;;;;;4410327;32;20085;-71
2021/11/30 08:23:23;;;;;;;0.40;0.40;;;2.80;99.90;;;;;;4405699;32;20118;-71
2021/11/30 08:25:49;;;;;;;1.35;0.68;;;2.80;99.90;;;;;;4411845;32;20113;-71
2021/11/30 08:28:15;;;;;;;0.50;0.50;;;2.80;99.90;;;;;;4408970;32;20142;-71
2021/11/30 08:30:40;;;;;;;0.50;0.50;;;2.70;99.90;;;;;;4410406;32;20085;-71
2021/11/30 08:33:06;;;;;;;0.50;0.50;;;2.80;99.90;;;;;;4412856;32;20206;-71
2021/11/30 08:35:32;;;;;;;0.37;0.37;;;2.80;99.90;;;;;;4414877;32;20074;-71
2021/11/30 08:37:57;;;;;;;0.50;0.50;;;2.80;99.90;;;;;;4408324;32;20098;-71
2021/11/30 08:40:23;;;;;;;0.32;0.32;;;2.80;99.90;;;;;;4408596;32;20093;-71
2021/11/30 08:42:48;;;;;;;0.52;0.52;;;2.90;99.90;;;;;;4410197;32;20101;-71
2021/11/30 08:45:14;;;;;;;0.40;0.40;;;2.80;99.90;;;;;;4410898;32;20175;-71
2021/11/30 08:47:40;;;;;;;0.40;0.40;;;2.80;99.90;;;;;;4416123;32;20093;-72
2021/11/30 08:50:10;;;;;;;0.40;0.40;;;2.80;99.90;;;;;;4416023;32;20557;-71
2021/11/30 08:52:36;;;;;;;0.30;0.30;;;2.90;99.90;;;;;;4418472;32;20085;-72
2021/11/30 08:55:03;;;;;;;1.30;1.12;;;2.90;99.90;;;;;;4420316;32;20487;-73
2021/11/30 08:57:28;;;;;;;0.30;0.30;;;3.00;99.90;;;;;;4422237;32;20178;-70
2021/11/30 08:59:55;;;;;;;0.37;0.37;;;3.00;99.90;;;;;;4419849;32;20435;-71
2021/11/30 09:02:21;;;;;;;0.43;0.43;;;3.00;99.90;;;;;;4414666;32;20084;-71
2021/11/30 09:04:48;;;;;;;0.60;0.60;;;3.00;99.90;;;;;;4417074;32;20250;-71
2021/11/30 09:07:16;;;;;;;0.43;0.43;;;3.00;99.90;;;;;;4421249;32;20838;-74
2021/11/30 09:09:43;;;;;;;0.37;0.37;;;3.00;99.90;;;;;;4423247;32;20060;-74
2021/11/30 09:12:09;;;;;;;0.40;0.40;;;3.00;99.90;;;;;;4422951;32;20152;-73
2021/11/30 09:14:35;;;;;;;0.40;0.40;;;3.00;99.90;;;;;;4420770;32;20582;-73
2021/11/30 09:17:01;;;;;;;0.68;0.68;;;3.00;99.90;;;;;;4420263;32;20069;-73
2021/11/30 09:19:28;;;;;;;0.80;0.80;;;3.10;99.90;;;;;;4423326;32;20073;-73
2021/11/30 09:21:54;;;;;;;0.35;0.35;;;3.10;99.90;;;;;;4422055;32;20215;-73
2021/11/30 09:24:20;;;;;;;0.60;0.60;;;3.20;99.90;;;;;;4417793;32;20088;-73
2021/11/30 09:26:47;;;;;;;0.40;0.40;;;3.20;99.90;;;;;;4426428;32;20074;-73
2021/11/30 09:29:12;;;;;;;0.30;0.30;;;3.10;99.90;;;;;;4424386;32;20734;-74
2021/11/30 09:31:39;;;;;;;0.40;0.40;;;3.20;99.90;;;;;;4418719;32;20285;-73
2021/11/30 09:34:06;;;;;;;0.30;0.30;;;3.10;99.90;;;;;;4421658;32;20061;-73
2021/11/30 09:36:32;;;;;;;0.40;0.40;;;3.20;99.90;;;;;;4424017;32;20082;-73
2021/11/30 09:38:59;;;;;;;0.32;0.32;;;3.20;99.90;;;;;;4421237;32;20082;-73
2021/11/30 09:41:27;;;;;;;0.35;0.35;;;3.20;99.90;;;;;;4419311;32;20178;-73
2021/11/30 09:43:52;;;;;;;0.40;0.40;;;3.20;99.90;;;;;;4426870;32;20089;-73
2021/11/30 09:46:19;;;;;;;0.70;0.70;;;3.20;99.90;;;;;;4423157;32;20084;-73
2021/11/30 09:48:45;;;;;;;1.37;0.82;;;3.20;99.90;;;;;;4419345;32;20097;-73
2021/11/30 09:51:10;;;;;;;0.40;0.40;;;3.20;99.90;;;;;;4417472;32;20644;-73
2021/11/30 09:53:36;;;;;;;0.30;0.30;;;3.30;99.90;;;;;;4422573;32;20250;-74
2021/11/30 09:56:04;;;;;;;0.50;0.50;;;3.40;99.90;;;;;;4423983;32;20105;-73
2021/11/30 09:58:30;;;;;;;0.50;0.50;;;3.40;99.90;;;;;;4418994;32;20148;-74
2021/11/30 10:00:59;;;;;;;0.30;0.30;;;3.50;99.90;;;;;;4424063;32;20096;-73
2021/11/30 10:03:25;;;;;;;0.57;0.57;;;3.50;99.90;;;;;;4420249;32;20061;-73
2021/11/30 10:05:52;;;;;;;0.40;0.40;;;3.50;99.90;;;;;;4421384;32;20085;-73
2021/11/30 10:08:36;;;;;;;0.60;0.60;;;3.60;99.90;;;;;;4415608;32;20586;-74
2021/11/30 10:11:04;;;;;;;0.40;0.40;;;3.60;99.90;;;;;;4421236;32;20089;-73
2021/11/30 10:13:30;;;;;;;0.30;0.30;;;3.70;99.90;;;;;;4415348;32;20089;-73
2021/11/30 10:16:00;;;;;;;0.30;0.30;;;3.70;99.90;;;;;;4419033;32;20116;-72
2021/11/30 10:18:28;;;;;;;;;;;3.70;99.90;;;;;;4419180;32;20105;-73
2021/11/30 10:20:59;;;;;;;0.57;0.57;;;3.70;99.90;;;;;;4421455;32;20022;-72
2021/11/30 10:23:25;;;;;;;;;;;3.80;99.90;;;;;;4414288;32;20070;-73
2021/11/30 10:25:52;;;;;;;0.30;0.30;;;3.80;99.90;;;;;;4420818;32;20008;-72
2021/11/30 10:28:21;;;;;;;0.30;0.30;;;3.80;99.90;;;;;;4422120;32;20102;-75
2021/11/30 10:30:50;;;;;;;0.30;0.30;;;3.90;99.90;;;;;;4411739;32;20089;-73
2021/11/30 10:33:19;;;;;;;0.50;0.50;;;4.00;99.90;;;;;;4404832;32;20097;-73
2021/11/30 10:35:50;;;;;;;0.40;0.40;;;4.10;99.90;;;;;;4408010;32;20080;-72
2021/11/30 10:38:15;;;;;;;0.40;0.40;;;4.10;99.90;;;;;;4407984;32;20094;-72
2021/11/30 10:40:41;;;;;;;0.30;0.30;;;4.20;99.90;;;;;;4411047;32;20099;-72
2021/11/30 10:43:09;;;;;;;0.30;0.30;;;4.30;99.90;;;;;;4412498;32;20073;-71
2021/11/30 10:45:43;;;;;;;0.45;0.45;;;4.40;99.90;;;;;;4415790;32;21074;-72
2021/11/30 10:48:20;;;;;;;0.40;0.40;;;4.40;99.90;;;;;;4419654;32;20093;-71
2021/11/30 10:50:50;;;;;;;0.50;0.50;;;4.50;99.90;;;;;;4417624;32;20116;-73
2021/11/30 10:53:21;;;;;;;0.30;0.30;;;4.50;99.90;;;;;;4413483;32;20248;-72
2021/11/30 10:55:49;;;;;;;0.30;0.30;;;4.60;99.90;;;;;;4416356;32;20149;-72
2021/11/30 10:58:17;;;;;;;0.50;0.50;;;4.60;99.90;;;;;;4414961;32;20514;-72
2021/11/30 11:00:43;;;;;;;0.30;0.30;;;4.70;99.90;;;;;;4415477;32;20084;-71
2021/11/30 11:03:16;;;;;;;0.32;0.32;;;4.70;99.90;;;;;;4415431;32;20053;-72
2021/11/30 11:05:50;;;;;;;0.30;0.30;;;4.80;99.90;;;;;;4417782;32;20069;-72
2021/11/30 11:08:19;;;;;;;0.50;0.50;;;4.80;99.90;;;;;;4415024;32;20177;-72
2021/11/30 11:10:47;;;;;;;0.40;0.40;;;4.90;99.90;;;;;;4413783;32;20097;-71
2021/11/30 11:13:18;;;;;;;0.30;0.30;;;4.90;99.90;;;;;;4413678;32;20126;-71
2021/11/30 11:15:43;;;;;;;0.40;0.40;;;5.00;99.90;;;;;;4410823;32;20077;-71
2021/11/30 11:18:34;;;;;;;0.30;0.30;;;5.00;99.90;;;;;;4408171;32;20328;-71
2021/11/30 11:21:24;;;;;;;0.40;0.40;;;5.10;99.90;;;;;;4406760;32;20475;-71
2021/11/30 11:24:12;;;;;;;0.30;0.30;;;5.00;99.90;;;;;;4411175;32;20585;-71
2021/11/30 11:26:44;;;;;;;0.25;0.25;;;5.10;99.90;;;;;;4410247;32;20090;-72
2021/11/30 11:29:13;;;;;;;0.40;0.40;;;5.10;99.90;;;;;;4410877;32;20114;-72
2021/11/30 11:31:42;;;;;;;0.45;0.45;;;5.10;99.90;;;;;;4409552;32;20140;-72
2021/11/30 11:34:09;;;;;;;0.55;0.55;;;5.10;99.90;;;;;;4410547;32;20078;-71
2021/11/30 11:36:35;;;;;;;0.22;0.22;;;5.10;99.90;;;;;;4411728;32;20187;-72
2021/11/30 11:39:02;;;;;;;0.30;0.30;;;5.20;99.90;;;;;;4410093;32;20065;-73
2021/11/30 11:41:29;;;;;;;0.30;0.30;;;5.20;99.90;;;;;;4404401;32;20093;-73
2021/11/30 11:43:55;;;;;;;0.50;0.50;;;5.20;99.90;;;;;;4410877;32;20097;-72
2021/11/30 11:46:20;;;;;;;0.30;0.30;;;5.20;99.90;;;;;;4409850;32;20155;-72
2021/11/30 11:48:56;;;;;;;0.30;0.30;;;5.20;99.90;;;;;;4413417;32;20113;-72
2021/11/30 11:51:22;;;;;;;0.30;0.30;;;5.20;99.90;;;;;;4406306;32;20097;-72
2021/11/30 11:53:54;;;;;;;0.32;0.32;;;5.20;99.90;;;;;;4399199;32;20084;-72
2021/11/30 11:56:25;;;;;;;0.40;0.40;;;5.30;99.90;;;;;;4404199;32;20081;-71
2021/11/30 11:59:04;;;;;;;;;;;5.30;99.90;;;;;;4403429;32;20073;-72
2021/11/30 12:01:31;;;;;;;0.30;0.30;;;5.30;99.90;;;;;;4405456;32;20363;-73
2021/11/30 12:04:00;;;;;;;1.08;0.65;;;5.40;99.90;;;;;;4415257;32;20122;-73
2021/11/30 12:06:28;;;;;;;0.25;0.25;;;5.40;99.90;;;;;;4404825;32;20065;-74
2021/11/30 12:09:12;;;;;;;0.30;0.30;;;5.40;99.90;;;;;;4414079;32;20085;-73
2021/11/30 12:11:42;;;;;;;0.85;0.47;;;5.40;99.90;;;;;;4412716;32;20096;-73
2021/11/30 12:14:11;;;;;;;0.35;0.35;;;5.40;99.90;;;;;;4410206;32;20089;-72
2021/11/30 12:16:59;;;;;;;0.30;0.30;;;5.40;99.90;;;;;;4412294;32;20604;-71
2021/11/30 12:19:27;;;;;;;0.45;0.45;;;5.50;99.90;;;;;;4418489;32;20093;-72
2021/11/30 12:21:54;;;;;;;0.22;0.22;;;5.60;99.90;;;;;;4423313;32;20105;-73
2021/11/30 12:24:38;;;;;;;0.35;0.35;;;5.60;99.90;;;;;;4401645;32;20097;-73
2021/11/30 12:27:25;;;;;;;0.40;0.40;;;5.70;99.90;;;;;;4401026;32;21003;-75
2021/11/30 12:29:53;;;;;;;0.30;0.30;;;5.70;99.90;;;;;;4401709;32;20097;-73
2021/11/30 12:32:27;;;;;;;0.30;0.30;;;5.70;99.90;;;;;;4405054;32;20578;-72
2021/11/30 12:35:05;;;;;;;0.43;0.43;;;5.80;99.90;;;;;;4397569;32;20089;-72
2021/11/30 12:37:33;;;;;;;0.32;0.32;;;5.80;99.90;;;;;;4400427;32;20090;-72
2021/11/30 12:40:11;;;;;;;0.95;0.85;;;5.80;99.90;;;;;;4397788;32;20081;-71
2021/11/30 12:42:42;;;;;;;0.30;0.30;;;5.90;99.90;;;;;;4400332;32;20116;-72
2021/11/30 12:45:11;;;;;;;0.30;0.30;;;5.90;99.90;;;;;;4398272;32;20081;-72
2021/11/30 12:47:37;;;;;;;1.35;0.77;;;6.00;99.90;;;;;;4402546;32;20161;-72
2021/11/30 12:50:07;;;;;;;0.75;0.35;;;6.00;99.90;;;;;;4405857;32;20105;-72
2021/11/30 12:52:38;;;;;;;3.65;0.98;;;6.00;99.90;;;;;;4409327;32;20113;-73
2021/11/30 12:55:09;;;;;;;0.30;0.30;;;6.10;99.90;;;;;;4407843;32;20159;-72
2021/11/30 12:57:38;;;;;;;0.40;0.40;;;6.00;99.90;;;;;;4409027;32;20547;-72
2021/11/30 13:00:10;;;;;;;0.50;0.50;;;6.10;99.90;;;;;;4411546;32;20549;-72
2021/11/30 13:02:39;;;;;;;0.43;0.43;;;6.10;99.90;;;;;;4407026;32;20085;-73
2021/11/30 13:05:11;;;;;;;0.32;0.32;;;6.00;99.90;;;;;;4405706;32;20503;-73
2021/11/30 13:07:40;;;;;;;1.02;0.95;;;6.10;99.90;;;;;;4405468;32;20093;-72